aviador You're here:

VNKT Decoded Metar

KATHMANDU in NEPAL
Report Time2017-12-17 13:50:00
UTC Time2017-12-17 13:59:18
Flight Rules mvfr MVFR
WindCalm
Visibility6000 m
Phenomena:N/A
Clouds:Few 015 Hf
Expected CloudBase > 1,200 ft AGL from Temp-Dew spread
CeilingNone
Temp12°C (ISA +6)
Dew Point09°C (82% RH)
AAT11.8°C
QNH1022 hPa
Density Alt4,925 ft
Elevation4,386 ft
Report Wrong Elevation
Raw Report
VNKT 171350Z 00000KT 6000 FEW015 12/09 Q1022 NOSIG=

Extra information for VNKT:More info

Metar Taf Metar & Taf Last 4 Metars F.Rules Stats Wind Profile Meteogram Temp Stats Airport Information Weather charts Add Link Nearby VenuesMetar ALERT Operation Metar Decoded Social comments